CYBW/YBW METAR and TAF weather

Enter ICAO airport designator
Station Type Date Time Source
CYBW METAR 2018/01/19 17:00 UTC NOAA

CYBW 191700Z AUTO 31005KT 9SM CLR M05/M12 A2954 RMK SLP054


Station Type Date Time Source
CYBW Decoded METAR 2018/01/19 17:00 UTC NOAA

Calgary / Springbank, Canada (CYBW) 51-06N 114-22W
Jan 19, 2018 - 12:00 PM EST / 2018.01.19 1700 UTC
Wind: from the NW (310 degrees) at 6 MPH (5 KT):0
Visibility: 9 mile(s):0
Sky conditions: clear
Temperature: 23 F (-5 C)
Windchill: 15 F (-9 C):1
Dew Point: 10 F (-12 C)
Relative Humidity: 57%
Pressure (altimeter): 29.54 in. Hg (1000 hPa)
ob: CYBW 191700Z AUTO 31005KT 9SM CLR M05/M12 A2954 RMK SLP054
cycle: 17

Station Type Date Time Source
CYBW TAF 2018/01/19 13:39 UTC NOAA

TAF TAF CYBW 191238Z 1913/2001 26006KT P6SM FEW100 FEW200
BECMG 1914/1916 BKN100 BKN200
FM192100 27012G22KT P6SM SCT100 BKN200
RMK FCST BASED ON AUTO OBS. NXT FCST BY 191800Z


Example: see airport list